Time;durP1;ratioP1;P1;durP2;ratioP2;P2;SDS_P1;SDS_P2;PMS_P1;PMS_P2;Temp;Humidity;BMP_temperature;BMP_pressure;BME280_temperature;BME280_humidity;BME280_pressure;Samples;Min_cycle;Max_cycle;Signal;HPM_P1;HPM_P2
2023/05/26 00:02:25;;;;;;;6.68;4.72;;;19.10;45.80;;;;;;5000611;28;20131;-80
2023/05/26 00:04:51;;;;;;;6.97;4.15;;;19.00;45.70;;;;;;5000629;28;20400;-78
2023/05/26 00:07:17;;;;;;;5.40;3.78;;;19.00;45.80;;;;;;5010458;28;20033;-78
2023/05/26 00:09:49;;;;;;;6.82;4.05;;;19.00;45.90;;;;;;4999515;28;20068;-80
2023/05/26 00:12:15;;;;;;;7.85;4.63;;;18.90;45.90;;;;;;4992908;28;20224;-79
2023/05/26 00:14:41;;;;;;;5.53;4.35;;;18.90;46.00;;;;;;4992481;28;20036;-79
2023/05/26 00:17:07;;;;;;;6.93;4.90;;;18.80;45.90;;;;;;5002171;28;20431;-79
2023/05/26 00:19:59;;;;;;;4.38;3.63;;;18.80;46.00;;;;;;4992646;28;20387;-79
2023/05/26 00:22:26;;;;;;;5.22;4.20;;;18.70;45.90;;;;;;4992070;28;20045;-79
2023/05/26 00:24:53;;;;;;;6.38;4.18;;;18.70;46.00;;;;;;5001812;28;20037;-79
2023/05/26 00:27:19;;;;;;;5.75;4.32;;;18.60;45.90;;;;;;4993731;28;20095;-79
2023/05/26 00:29:48;;;;;;;8.45;5.35;;;18.60;46.10;;;;;;4999283;28;20060;-79
2023/05/26 00:32:14;;;;;;;8.07;4.72;;;18.50;45.90;;;;;;4997396;28;20469;-80
2023/05/26 00:34:40;;;;;;;5.82;3.75;;;18.50;46.10;;;;;;4998894;28;20127;-79
2023/05/26 00:37:07;;;;;;;4.75;3.85;;;18.40;46.00;;;;;;5002488;28;20777;-80
2023/05/26 00:39:36;;;;;;;6.72;4.50;;;18.40;46.10;;;;;;5009438;28;20041;-79
2023/05/26 00:42:02;;;;;;;5.57;3.88;;;18.30;46.00;;;;;;5015307;28;20025;-80
2023/05/26 00:44:29;;;;;;;7.53;4.65;;;18.30;46.10;;;;;;5017298;28;20439;-78
2023/05/26 00:46:55;;;;;;;5.50;4.43;;;18.20;46.10;;;;;;5017007;28;20049;-80
2023/05/26 00:49:21;;;;;;;6.40;3.88;;;18.20;46.20;;;;;;5010105;28;20022;-80
2023/05/26 00:51:54;;;;;;;4.97;4.30;;;18.20;46.30;;;;;;5000248;28;20038;-80
2023/05/26 00:54:24;;;;;;;6.07;4.63;;;18.10;46.20;;;;;;4997575;28;20045;-80
2023/05/26 00:56:58;;;;;;;5.45;4.45;;;18.10;46.30;;;;;;5000760;28;20316;-81
2023/05/26 00:59:24;;;;;;;7.35;4.38;;;18.00;46.20;;;;;;4999203;28;20143;-81
2023/05/26 01:01:51;;;;;;;4.78;4.18;;;17.90;46.20;;;;;;5001009;28;20423;-79
2023/05/26 01:04:18;;;;;;;5.13;3.65;;;17.90;46.30;;;;;;4999910;28;20125;-79
2023/05/26 01:07:05;;;;;;;6.40;4.47;;;17.90;46.40;;;;;;4994869;28;20038;-80
2023/05/26 01:09:40;;;;;;;4.13;3.72;;;17.80;46.20;;;;;;5009100;28;20393;-79
2023/05/26 01:12:15;;;;;;;6.10;4.03;;;17.80;46.30;;;;;;5007704;28;20068;-79
2023/05/26 01:15:13;;;;;;;7.10;4.35;;;17.80;46.50;;;;;;5003391;28;20033;-80
2023/05/26 01:17:46;;;;;;;9.90;5.18;;;17.70;46.40;;;;;;4986654;28;20103;-80
2023/05/26 01:20:19;;;;;;;4.70;4.20;;;17.70;46.40;;;;;;4985725;28;20137;-80
2023/05/26 01:22:48;;;;;;;5.20;4.65;;;17.60;46.20;;;;;;4990976;28;20120;-79
2023/05/26 01:25:27;;;;;;;4.28;3.83;;;17.60;46.40;;;;;;4999987;28;20053;-79
2023/05/26 01:28:12;;;;;;;5.55;4.22;;;17.50;46.30;;;;;;5013525;28;20038;-80
2023/05/26 01:30:58;;;;;;;6.30;4.38;;;17.50;46.40;;;;;;4999134;28;20038;-80
2023/05/26 01:33:42;;;;;;;6.10;4.25;;;17.50;46.40;;;;;;4989998;28;20538;-80
2023/05/26 01:36:08;;;;;;;6.95;4.35;;;17.40;46.40;;;;;;5001303;28;20037;-79
2023/05/26 01:38:34;;;;;;;7.07;4.05;;;17.30;46.30;;;;;;5001933;28;20041;-79
2023/05/26 01:41:12;;;;;;;5.80;3.92;;;17.30;46.40;;;;;;4995899;28;20046;-79
2023/05/26 01:43:50;;;;;;;6.82;3.80;;;17.30;46.60;;;;;;4999083;28;20046;-80
2023/05/26 01:46:28;;;;;;;6.35;4.88;;;17.20;46.50;;;;;;5001691;28;20149;-79
2023/05/26 01:48:58;;;;;;;6.72;4.50;;;17.20;46.60;;;;;;5002531;28;20506;-79
2023/05/26 01:51:33;;;;;;;6.15;5.00;;;17.10;46.50;;;;;;5016077;28;20378;-79
2023/05/26 01:54:10;;;;;;;9.35;5.65;;;17.10;46.60;;;;;;5006197;28;20029;-78
2023/05/26 01:56:44;;;;;;;6.00;4.65;;;17.00;46.50;;;;;;5000499;28;20045;-79
2023/05/26 01:59:21;;;;;;;5.75;4.00;;;17.00;46.60;;;;;;5004029;28;20120;-78
2023/05/26 02:01:52;;;;;;;7.35;4.97;;;16.90;46.60;;;;;;5003732;28;20045;-80
2023/05/26 02:04:19;;;;;;;6.28;4.97;;;16.90;46.60;;;;;;5003063;28;20034;-79
2023/05/26 02:06:50;;;;;;;5.88;4.15;;;16.90;46.80;;;;;;5005824;28;20425;-80
2023/05/26 02:09:17;;;;;;;5.78;3.88;;;16.80;46.70;;;;;;5003628;28;20095;-79
2023/05/26 02:11:48;;;;;;;6.50;4.22;;;16.80;46.80;;;;;;5004216;28;20038;-80
2023/05/26 02:14:14;;;;;;;6.20;4.47;;;16.70;46.80;;;;;;5004199;28;20501;-79
2023/05/26 02:16:41;;;;;;;5.15;3.88;;;16.70;46.90;;;;;;5009484;28;20119;-80
2023/05/26 02:19:13;;;;;;;6.25;4.28;;;16.60;46.80;;;;;;5005875;28;20064;-80
2023/05/26 02:21:42;;;;;;;9.35;5.97;;;16.60;46.80;;;;;;4990698;28;20045;-79
2023/05/26 02:24:08;;;;;;;5.72;4.88;;;16.60;46.90;;;;;;5003614;28;20022;-79
2023/05/26 02:26:37;;;;;;;5.07;4.22;;;16.50;46.70;;;;;;5026553;28;20041;-78
2023/05/26 02:29:03;;;;;;;6.20;4.28;;;16.50;46.90;;;;;;4986555;28;20022;-78
2023/05/26 02:31:29;;;;;;;5.35;4.63;;;16.50;46.90;;;;;;5014114;28;20401;-79
2023/05/26 02:33:58;;;;;;;6.45;4.22;;;16.50;47.00;;;;;;5005046;28;20253;-78
2023/05/26 02:36:25;;;;;;;4.88;4.25;;;16.40;46.90;;;;;;5003990;28;20053;-79
2023/05/26 02:38:55;;;;;;;5.47;4.20;;;16.40;47.00;;;;;;4989412;28;20045;-79
2023/05/26 02:41:27;;;;;;;6.03;4.93;;;16.40;47.10;;;;;;5003251;28;20034;-79
2023/05/26 02:43:54;;;;;;;6.70;5.57;;;16.40;47.10;;;;;;5006294;28;20156;-79
2023/05/26 02:46:26;;;;;;;5.90;4.85;;;16.30;47.00;;;;;;5005416;28;20100;-79
2023/05/26 02:48:52;;;;;;;6.30;4.40;;;16.30;47.10;;;;;;5006652;28;20037;-81
2023/05/26 02:51:18;;;;;;;5.22;4.72;;;16.20;46.90;;;;;;5005646;28;20038;-80
2023/05/26 02:53:54;;;;;;;6.28;4.60;;;16.20;47.00;;;;;;5007703;28;20514;-78
2023/05/26 02:56:27;;;;;;;6.88;5.22;;;16.20;47.10;;;;;;5004929;28;20033;-79
2023/05/26 02:58:54;;;;;;;5.53;4.20;;;16.10;47.00;;;;;;5007317;28;20041;-79
2023/05/26 03:01:21;;;;;;;8.02;5.38;;;16.10;47.10;;;;;;5007131;28;20149;-80
2023/05/26 03:03:47;;;;;;;5.93;4.78;;;16.10;47.20;;;;;;4998267;28;20062;-79
2023/05/26 03:06:34;;;;;;;7.22;5.07;;;16.00;47.10;;;;;;5007682;28;20107;-79
2023/05/26 03:09:04;;;;;;;5.13;4.35;;;16.00;47.20;;;;;;5007063;28;20489;-79
2023/05/26 03:11:33;;;;;;;6.85;4.90;;;16.00;47.30;;;;;;5006262;28;20445;-81
2023/05/26 03:14:00;;;;;;;6.15;4.95;;;15.90;47.20;;;;;;5002690;28;20068;-78
2023/05/26 03:16:29;;;;;;;6.50;4.40;;;15.90;47.30;;;;;;5006209;28;20523;-78
2023/05/26 03:19:06;;;;;;;6.82;4.72;;;15.90;47.40;;;;;;5004640;28;20133;-79
2023/05/26 03:21:36;;;;;;;5.82;4.97;;;15.90;47.50;;;;;;4975642;28;20109;-79
2023/05/26 03:24:13;;;;;;;5.20;4.28;;;15.80;47.30;;;;;;4998331;28;20044;-80
2023/05/26 03:26:39;;;;;;;6.18;4.82;;;15.80;47.40;;;;;;5006732;28;20053;-80
2023/05/26 03:29:08;;;;;;;5.65;4.60;;;15.70;47.30;;;;;;5000548;28;20073;-80
2023/05/26 03:31:38;;;;;;;6.72;4.47;;;15.70;47.30;;;;;;5004540;28;20041;-80
2023/05/26 03:34:07;;;;;;;7.07;4.60;;;15.70;47.50;;;;;;5007852;28;20120;-78
2023/05/26 03:36:36;;;;;;;5.40;4.68;;;15.70;47.50;;;;;;5006273;28;20037;-78
2023/05/26 03:39:14;;;;;;;5.80;4.53;;;15.70;47.60;;;;;;4990338;28;20492;-79
2023/05/26 03:41:43;;;;;;;5.43;4.93;;;15.60;47.50;;;;;;5001506;28;20072;-77
2023/05/26 03:44:10;;;;;;;5.07;4.57;;;15.60;47.50;;;;;;5006442;28;20104;-77
2023/05/26 03:46:37;;;;;;;8.60;5.68;;;15.60;47.60;;;;;;5003676;28;20054;-78
2023/05/26 03:49:05;;;;;;;6.82;4.60;;;15.60;47.60;;;;;;5005868;28;20119;-78
2023/05/26 03:51:31;;;;;;;5.97;4.55;;;15.50;47.50;;;;;;5018307;28;20049;-78
2023/05/26 03:53:58;;;;;;;5.60;4.80;;;15.50;47.60;;;;;;5001527;28;20028;-79
2023/05/26 03:56:25;;;;;;;5.93;4.93;;;15.40;47.50;;;;;;5001253;28;20516;-78
2023/05/26 03:58:54;;;;;;;5.20;4.32;;;15.40;47.60;;;;;;5004395;28;20041;-79
2023/05/26 04:01:22;;;;;;;5.47;4.35;;;15.40;47.70;;;;;;5005649;28;20038;-79
2023/05/26 04:03:48;;;;;;;6.35;5.18;;;15.30;47.60;;;;;;4988985;28;20125;-79
2023/05/26 04:06:14;;;;;;;5.75;4.68;;;15.30;47.70;;;;;;5006655;28;20120;-79
2023/05/26 04:08:41;;;;;;;6.47;4.78;;;15.30;47.80;;;;;;5005411;28;20033;-78
2023/05/26 04:11:10;;;;;;;6.03;4.70;;;15.30;47.90;;;;;;5002449;28;20042;-78
2023/05/26 04:13:40;;;;;;;5.63;4.53;;;15.20;47.80;;;;;;5009072;28;20387;-78
2023/05/26 04:16:06;;;;;;;4.97;4.30;;;15.20;47.80;;;;;;5013035;28;20044;-79
2023/05/26 04:18:36;;;;;;;5.50;4.80;;;15.20;47.90;;;;;;5014439;28;20033;-78
2023/05/26 04:21:04;;;;;;;6.53;4.97;;;15.10;47.80;;;;;;5009178;28;20056;-78
2023/05/26 04:23:31;;;;;;;6.20;4.97;;;15.10;47.90;;;;;;5002582;28;20687;-77
2023/05/26 04:26:00;;;;;;;5.47;4.68;;;15.10;47.90;;;;;;5002274;28;20037;-78
2023/05/26 04:28:40;;;;;;;4.93;4.43;;;15.10;48.00;;;;;;5010206;28;20027;-78
2023/05/26 04:31:29;;;;;;;4.55;3.95;;;15.10;48.00;;;;;;5001694;28;20034;-77
2023/05/26 04:34:33;;;;;;;7.53;5.28;;;15.10;47.90;;;;;;4996027;28;20092;-77
2023/05/26 04:37:08;;;;;;;6.07;4.75;;;15.10;47.90;;;;;;5006010;28;20513;-78
2023/05/26 04:39:45;;;;;;;6.78;4.57;;;15.10;47.90;;;;;;5000692;28;20129;-78
2023/05/26 04:42:15;;;;;;;5.78;4.60;;;15.10;47.90;;;;;;5003426;28;20022;-78
2023/05/26 04:44:43;;;;;;;5.63;4.13;;;15.10;47.90;;;;;;5003389;28;20088;-81
2023/05/26 04:47:09;;;;;;;5.95;4.85;;;15.10;48.00;;;;;;5002835;28;20088;-77
2023/05/26 04:49:38;;;;;;;5.20;4.53;;;15.10;48.00;;;;;;4997575;28;20081;-78
2023/05/26 04:52:04;;;;;;;9.50;5.18;;;15.10;48.00;;;;;;4998136;28;20034;-79
2023/05/26 04:54:31;;;;;;;5.13;4.60;;;15.10;48.00;;;;;;4991767;28;20038;-78
2023/05/26 04:56:57;;;;;;;6.43;4.85;;;15.10;48.00;;;;;;4997674;28;20533;-78
2023/05/26 04:59:38;;;;;;;10.07;5.72;;;15.10;48.10;;;;;;4993713;28;20599;-79
2023/05/26 05:02:04;;;;;;;5.90;4.15;;;15.10;48.00;;;;;;4993688;28;20030;-80
2023/05/26 05:04:42;;;;;;;8.32;4.35;;;15.20;48.20;;;;;;4998492;28;20082;-79
2023/05/26 05:07:08;;;;;;;6.00;4.68;;;15.10;48.10;;;;;;4992232;28;20350;-77
2023/05/26 05:09:41;;;;;;;4.88;4.28;;;15.20;48.30;;;;;;4993615;28;20041;-79
2023/05/26 05:12:10;;;;;;;5.72;3.90;;;15.20;48.20;;;;;;5001917;28;20456;-78
2023/05/26 05:14:36;;;;;;;6.90;4.32;;;15.20;48.20;;;;;;4995033;28;20048;-80
2023/05/26 05:17:03;;;;;;;5.30;4.60;;;15.20;48.20;;;;;;4995582;28;20030;-78
2023/05/26 05:19:31;;;;;;;6.15;4.60;;;15.30;48.40;;;;;;4994520;28;20065;-79
2023/05/26 05:22:01;;;;;;;5.40;4.00;;;15.30;48.30;;;;;;4995890;28;20411;-79
2023/05/26 05:24:30;;;;;;;5.28;4.20;;;15.40;48.40;;;;;;4994081;28;20116;-78
2023/05/26 05:27:00;;;;;;;7.40;4.00;;;15.40;48.40;;;;;;4996377;28;20272;-77
2023/05/26 05:29:26;;;;;;;4.82;3.60;;;15.50;48.50;;;;;;4988856;28;20141;-78
2023/05/26 05:31:54;;;;;;;3.85;3.30;;;15.60;48.50;;;;;;4990036;28;20058;-80
2023/05/26 05:34:21;;;;;;;6.93;4.32;;;15.70;48.60;;;;;;4996131;28;20591;-84
2023/05/26 05:36:50;;;;;;;9.63;5.45;;;15.80;48.60;;;;;;4995917;28;20045;-88
2023/05/26 05:39:19;;;;;;;8.05;4.75;;;15.90;48.60;;;;;;5001941;28;20581;-89
2023/05/26 05:41:48;;;;;;;6.00;3.60;;;16.00;48.60;;;;;;5000717;28;20117;-85
2023/05/26 05:44:14;;;;;;;7.07;3.85;;;16.10;48.70;;;;;;5012239;28;20576;-82
2023/05/26 05:46:40;;;;;;;8.80;4.13;;;16.20;48.70;;;;;;4994039;28;20050;-80
2023/05/26 05:49:18;;;;;;;7.25;3.35;;;16.40;48.90;;;;;;4994858;28;20916;-85
2023/05/26 05:51:55;;;;;;;6.03;2.90;;;16.50;48.90;;;;;;4996123;28;20037;-81
2023/05/26 05:54:21;;;;;;;7.47;3.58;;;16.70;49.00;;;;;;4994031;28;20077;-81
2023/05/26 05:56:47;;;;;;;7.75;3.47;;;16.90;49.30;;;;;;4995455;28;20044;-79
2023/05/26 05:59:21;;;;;;;8.15;2.90;;;17.10;49.90;;;;;;5000512;28;20034;-78
2023/05/26 06:01:57;;;;;;;5.30;2.88;;;17.30;50.70;;;;;;4996666;28;20489;-79
2023/05/26 06:04:26;;;;;;;5.38;2.90;;;17.60;51.50;;;;;;4996042;28;20061;-77
2023/05/26 06:06:52;;;;;;;7.95;3.55;;;17.80;52.10;;;;;;5007278;28;20061;-78
2023/05/26 06:09:21;;;;;;;5.80;2.75;;;18.10;52.50;;;;;;5004797;28;20056;-79
2023/05/26 06:11:47;;;;;;;7.45;3.22;;;18.40;52.90;;;;;;4999401;28;20029;-78
2023/05/26 06:14:20;;;;;;;6.82;3.45;;;18.70;53.10;;;;;;4994984;28;20030;-78
2023/05/26 06:16:46;;;;;;;4.25;2.90;;;19.10;53.40;;;;;;5011346;28;20037;-78
2023/05/26 06:19:12;;;;;;;6.22;2.97;;;19.40;53.40;;;;;;4993916;28;20129;-79
2023/05/26 06:21:38;;;;;;;9.57;3.15;;;19.80;53.50;;;;;;4993765;28;20048;-78
2023/05/26 06:24:05;;;;;;;8.07;3.88;;;20.30;53.50;;;;;;4992793;28;20030;-79
2023/05/26 06:26:35;;;;;;;7.82;3.25;;;20.80;53.30;;;;;;4994463;28;20357;-78
2023/05/26 06:29:01;;;;;;;6.03;2.85;;;21.30;53.10;;;;;;4992592;28;20109;-78
2023/05/26 06:31:28;;;;;;;18.27;4.47;;;21.90;53.00;;;;;;4994154;28;20049;-80
2023/05/26 06:34:06;;;;;;;6.95;2.53;;;22.40;52.70;;;;;;4995523;28;20141;-82
2023/05/26 06:36:38;;;;;;;10.23;3.37;;;22.90;52.30;;;;;;4997140;28;20458;-79
2023/05/26 06:39:05;;;;;;;8.55;3.60;;;23.50;52.30;;;;;;4996831;28;20283;-79
2023/05/26 06:41:41;;;;;;;7.47;3.05;;;24.00;52.10;;;;;;4992555;28;20038;-79
2023/05/26 06:44:07;;;;;;;8.32;2.78;;;24.50;51.80;;;;;;4992664;28;20074;-79
2023/05/26 06:46:34;;;;;;;11.75;4.22;;;24.90;51.40;;;;;;4999715;28;20061;-79
2023/05/26 06:49:00;;;;;;;6.45;3.50;;;25.30;50.70;;;;;;4993806;28;20096;-80
2023/05/26 06:51:37;;;;;;;8.07;2.92;;;25.70;50.00;;;;;;5009269;28;20046;-79
2023/05/26 06:54:24;;;;;;;6.60;3.00;;;26.10;49.20;;;;;;4939774;28;20480;-79
2023/05/26 06:56:50;;;;;;;8.40;3.60;;;26.50;48.50;;;;;;4965436;28;20046;-78
2023/05/26 06:59:21;;;;;;;11.48;3.80;;;26.80;48.40;;;;;;4996494;28;20026;-79
2023/05/26 07:01:47;;;;;;;7.70;2.88;;;27.20;47.10;;;;;;4997413;28;20046;-77
2023/05/26 07:04:14;;;;;;;10.32;3.75;;;27.50;46.60;;;;;;5002986;28;20030;-74
2023/05/26 07:06:42;;;;;;;8.70;3.63;;;27.80;46.00;;;;;;4998643;28;20522;-74
2023/05/26 07:09:11;;;;;;;6.78;2.80;;;28.10;45.40;;;;;;4982349;28;20034;-77
2023/05/26 07:11:48;;;;;;;8.07;3.35;;;28.40;44.80;;;;;;4997953;28;20072;-77
2023/05/26 07:14:34;;;;;;;7.38;3.22;;;28.80;44.20;;;;;;4994387;28;20037;-77
2023/05/26 07:17:00;;;;;;;8.73;3.58;;;29.30;43.60;;;;;;4991224;28;20502;-77
2023/05/26 07:19:27;;;;;;;9.70;3.63;;;29.60;42.90;;;;;;4994667;28;20027;-77
2023/05/26 07:21:55;;;;;;;9.57;2.95;;;29.90;42.40;;;;;;5011472;28;20093;-77
2023/05/26 07:24:25;;;;;;;7.28;3.78;;;30.00;42.00;;;;;;4980612;28;20456;-76
2023/05/26 07:26:52;;;;;;;7.28;3.40;;;29.90;42.00;;;;;;5003065;28;20041;-77
2023/05/26 07:29:21;;;;;;;9.60;3.60;;;29.80;42.10;;;;;;4990466;28;20449;-76
2023/05/26 07:31:47;;;;;;;8.13;3.60;;;29.60;42.20;;;;;;5000490;28;20558;-77
2023/05/26 07:34:14;;;;;;;9.13;3.75;;;29.50;42.20;;;;;;5002064;28;20033;-77
2023/05/26 07:36:40;;;;;;;5.20;2.83;;;29.50;42.00;;;;;;4999438;28;20045;-78
2023/05/26 07:39:10;;;;;;;7.40;3.20;;;29.70;41.40;;;;;;5001298;28;20029;-79
2023/05/26 07:41:42;;;;;;;6.75;3.45;;;30.00;40.70;;;;;;4992746;28;20043;-76
2023/05/26 07:44:08;;;;;;;11.85;3.45;;;30.40;40.10;;;;;;5000802;28;20026;-77
2023/05/26 07:46:34;;;;;;;9.07;3.25;;;30.70;39.50;;;;;;4992915;28;20039;-77
2023/05/26 07:49:00;;;;;;;7.60;3.45;;;31.00;39.00;;;;;;4999497;28;20038;-76
2023/05/26 07:51:26;;;;;;;8.98;3.80;;;31.20;38.60;;;;;;4992733;28;20382;-76
2023/05/26 07:53:55;;;;;;;9.90;4.70;;;31.40;38.30;;;;;;5001472;28;20768;-76
2023/05/26 07:56:25;;;;;;;10.68;3.00;;;31.40;38.20;;;;;;4988776;28;20528;-76
2023/05/26 07:59:00;;;;;;;7.30;2.90;;;31.50;38.10;;;;;;4989029;28;20038;-76
2023/05/26 08:01:27;;;;;;;5.85;3.03;;;31.40;38.10;;;;;;4989591;28;20030;-74
2023/05/26 08:03:53;;;;;;;8.15;2.78;;;31.30;38.10;;;;;;4997999;28;20034;-77
2023/05/26 08:06:19;;;;;;;6.50;2.95;;;31.10;38.00;;;;;;4995027;28;20035;-76
2023/05/26 08:08:45;;;;;;;7.68;3.55;;;30.90;38.20;;;;;;4998233;28;20499;-76
2023/05/26 08:11:11;;;;;;;7.82;3.35;;;30.60;38.40;;;;;;4997357;28;20579;-77
2023/05/26 08:13:37;;;;;;;8.25;3.30;;;30.30;38.50;;;;;;4995250;28;20606;-76
2023/05/26 08:16:03;;;;;;;7.75;3.30;;;30.00;38.60;;;;;;4990474;28;20088;-75
2023/05/26 08:18:32;;;;;;;7.72;3.33;;;29.80;38.80;;;;;;4994908;28;20050;-75
2023/05/26 08:20:58;;;;;;;6.57;3.10;;;29.60;38.90;;;;;;4991248;28;20039;-76
2023/05/26 08:23:25;;;;;;;8.27;3.75;;;29.50;38.90;;;;;;4990595;28;20070;-75
2023/05/26 08:25:51;;;;;;;9.02;3.10;;;29.30;38.90;;;;;;4993153;28;20037;-75
2023/05/26 08:28:17;;;;;;;8.60;3.05;;;29.10;38.80;;;;;;4989746;28;20604;-74
2023/05/26 08:30:52;;;;;;;7.15;2.47;;;29.00;38.90;;;;;;4983918;28;20592;-76
2023/05/26 08:33:22;;;;;;;6.40;2.72;;;29.00;39.00;;;;;;4991345;28;20072;-76
2023/05/26 08:36:08;;;;;;;8.90;3.72;;;28.80;38.90;;;;;;4980218;28;20426;-74
2023/05/26 08:38:40;;;;;;;6.40;2.85;;;28.70;38.80;;;;;;4987476;28;20124;-75
2023/05/26 08:41:13;;;;;;;7.65;2.95;;;28.60;38.70;;;;;;4986516;28;20080;-75
2023/05/26 08:43:50;;;;;;;9.15;3.55;;;28.60;38.70;;;;;;4987942;28;20121;-76
2023/05/26 08:46:16;;;;;;;6.20;3.15;;;28.60;38.60;;;;;;4988397;28;20057;-76
2023/05/26 08:48:44;;;;;;;9.68;3.63;;;28.50;38.60;;;;;;4984528;28;20100;-76
2023/05/26 08:51:11;;;;;;;10.55;3.58;;;28.50;38.50;;;;;;4995368;28;20038;-77
2023/05/26 08:53:40;;;;;;;9.90;3.33;;;28.50;38.50;;;;;;4995680;28;20042;-77
2023/05/26 08:56:09;;;;;;;9.10;3.00;;;28.50;38.30;;;;;;4998166;28;20503;-76
2023/05/26 08:58:43;;;;;;;8.77;3.50;;;28.50;38.20;;;;;;5004071;28;20056;-77
2023/05/26 09:01:12;;;;;;;6.05;3.22;;;28.50;38.10;;;;;;4998062;28;20105;-76
2023/05/26 09:03:38;;;;;;;5.68;2.55;;;28.50;38.10;;;;;;4996829;28;20037;-76
2023/05/26 09:06:17;;;;;;;7.32;3.58;;;28.60;38.20;;;;;;4998825;28;20081;-76
2023/05/26 09:08:44;;;;;;;5.78;3.13;;;28.60;38.10;;;;;;4995978;28;20026;-76
2023/05/26 09:11:24;;;;;;;7.55;2.80;;;28.60;38.10;;;;;;4997628;28;20033;-76
2023/05/26 09:13:57;;;;;;;7.10;2.60;;;28.70;38.00;;;;;;4993356;28;20048;-76
2023/05/26 09:16:27;;;;;;;7.18;3.00;;;28.70;38.00;;;;;;4995075;28;20456;-75
2023/05/26 09:19:01;;;;;;;5.45;2.97;;;28.70;37.80;;;;;;4997449;28;20120;-76
2023/05/26 09:21:31;;;;;;;6.85;3.00;;;28.70;37.60;;;;;;4997635;28;20354;-76
2023/05/26 09:24:00;;;;;;;5.30;2.28;;;28.80;37.80;;;;;;4993053;28;20042;-77
2023/05/26 09:26:34;;;;;;;6.88;3.00;;;28.80;37.80;;;;;;4994577;28;20073;-77
2023/05/26 09:29:06;;;;;;;6.20;2.78;;;28.80;37.80;;;;;;4986598;28;20100;-74
2023/05/26 09:31:42;;;;;;;7.47;2.92;;;28.90;37.90;;;;;;4991621;28;20104;-78
2023/05/26 09:34:13;;;;;;;6.65;2.50;;;28.90;37.80;;;;;;4999803;28;20029;-77
2023/05/26 09:36:40;;;;;;;5.18;2.90;;;29.00;37.80;;;;;;5001889;28;20484;-78
2023/05/26 09:39:12;;;;;;;4.75;2.20;;;29.00;37.70;;;;;;4997177;28;20604;-77
2023/05/26 09:41:44;;;;;;;5.18;2.38;;;29.10;37.80;;;;;;4999217;28;20045;-76
2023/05/26 09:44:18;;;;;;;5.83;2.23;;;29.10;37.80;;;;;;4996649;28;20045;-76
2023/05/26 09:46:47;;;;;;;6.05;2.63;;;29.10;37.80;;;;;;4987257;28;20145;-77
2023/05/26 09:49:15;;;;;;;4.43;2.13;;;29.20;38.00;;;;;;4995510;28;20033;-76
2023/05/26 09:51:48;;;;;;;5.03;2.60;;;29.20;38.00;;;;;;4996900;28;20069;-75
2023/05/26 09:54:14;;;;;;;9.40;3.58;;;29.30;38.10;;;;;;4994343;28;20556;-82
2023/05/26 09:56:53;;;;;;;;;;;29.30;37.90;;;;;;4995360;28;20234;-81
2023/05/26 09:59:26;;;;;;;4.18;1.88;;;29.40;37.80;;;;;;4992530;28;19963;-80
2023/05/26 10:01:53;;;;;;;6.32;2.28;;;29.50;37.90;;;;;;4988779;28;20041;-81
2023/05/26 10:04:19;;;;;;;8.35;2.85;;;29.50;37.70;;;;;;4997209;28;20038;-82
2023/05/26 10:06:51;;;;;;;4.95;2.65;;;29.60;37.50;;;;;;4998972;28;20054;-80
2023/05/26 10:09:21;;;;;;;6.03;2.45;;;29.70;37.40;;;;;;4997188;28;20521;-80
2023/05/26 10:11:50;;;;;;;7.90;3.05;;;29.80;37.20;;;;;;4997579;28;20038;-82
2023/05/26 10:14:17;;;;;;;6.68;2.10;;;29.80;37.00;;;;;;4993605;28;20068;-82
2023/05/26 10:16:46;;;;;;;5.20;2.33;;;29.90;36.90;;;;;;4994759;28;20025;-81
2023/05/26 10:19:12;;;;;;;6.18;2.78;;;30.00;36.80;;;;;;4996714;28;20584;-80
2023/05/26 10:21:43;;;;;;;4.28;2.53;;;30.00;36.70;;;;;;4996468;28;20145;-84
2023/05/26 10:24:40;;;;;;;5.78;2.00;;;30.10;36.60;;;;;;4996342;28;20045;-82
2023/05/26 10:27:40;;;;;;;5.72;2.42;;;30.20;36.30;;;;;;4983339;28;20050;-81
2023/05/26 10:30:15;;;;;;;4.45;2.53;;;30.20;36.20;;;;;;4980902;28;20807;-83
2023/05/26 10:33:16;;;;;;;4.75;2.00;;;30.30;36.20;;;;;;4966816;28;20399;-83
2023/05/26 10:35:56;;;;;;;5.15;2.22;;;30.40;36.00;;;;;;4997638;28;20436;-82
2023/05/26 10:38:27;;;;;;;5.00;2.15;;;30.50;35.90;;;;;;5002131;28;20044;-82
2023/05/26 10:40:57;;;;;;;6.25;2.55;;;30.60;36.00;;;;;;4996946;28;20038;-82
2023/05/26 10:43:32;;;;;;;6.28;2.67;;;30.60;36.00;;;;;;5002083;28;20092;-79
2023/05/26 10:46:07;;;;;;;4.75;2.70;;;30.70;36.00;;;;;;4996065;28;20371;-79
2023/05/26 10:48:34;;;;;;;5.50;2.60;;;30.80;36.00;;;;;;5000299;28;20072;-79
2023/05/26 10:51:15;;;;;;;5.38;2.42;;;30.80;36.00;;;;;;5002642;28;20165;-79
2023/05/26 10:53:44;;;;;;;5.00;2.37;;;30.90;36.00;;;;;;5000797;28;20034;-79
2023/05/26 10:56:13;;;;;;;4.35;1.85;;;30.90;36.10;;;;;;5010986;28;20037;-80
2023/05/26 10:58:48;;;;;;;3.72;2.15;;;31.00;36.10;;;;;;5011489;28;20067;-81
2023/05/26 11:01:30;;;;;;;5.35;2.85;;;31.10;36.00;;;;;;4997209;28;20115;-80
2023/05/26 11:03:57;;;;;;;4.82;2.08;;;31.20;36.00;;;;;;4997545;28;20334;-85
2023/05/26 11:07:00;;;;;;;3.22;2.10;;;31.20;36.00;;;;;;4958425;28;20155;-88
2023/05/26 11:09:35;;;;;;;4.15;2.22;;;31.30;36.00;;;;;;5001206;28;20041;-85
2023/05/26 11:12:05;;;;;;;3.35;1.95;;;31.40;36.10;;;;;;4999407;28;20033;-85
2023/05/26 11:14:39;;;;;;;3.42;2.30;;;31.50;36.00;;;;;;4998748;28;20481;-83
2023/05/26 11:17:05;;;;;;;4.25;2.40;;;31.50;35.80;;;;;;4997014;28;20467;-82
2023/05/26 11:19:33;;;;;;;3.95;1.70;;;31.70;35.80;;;;;;5004889;28;20049;-81
2023/05/26 11:22:02;;;;;;;5.07;2.30;;;31.70;35.80;;;;;;4998292;28;20135;-84
2023/05/26 11:24:30;;;;;;;6.45;3.00;;;31.70;35.80;;;;;;5000409;28;20037;-82
2023/05/26 11:26:59;;;;;;;4.50;2.30;;;31.80;35.80;;;;;;4978014;28;20397;-82
2023/05/26 11:29:25;;;;;;;4.35;2.35;;;31.80;35.50;;;;;;4995845;28;20034;-82
2023/05/26 11:31:52;;;;;;;3.90;2.00;;;32.00;35.40;;;;;;4996139;28;20037;-82
2023/05/26 11:34:18;;;;;;;3.03;1.90;;;32.00;35.20;;;;;;4984831;28;20873;-81
2023/05/26 11:36:48;;;;;;;3.60;1.83;;;32.10;35.20;;;;;;5003138;28;20867;-81
2023/05/26 11:39:21;;;;;;;3.63;2.13;;;32.20;35.10;;;;;;5002678;28;20359;-81
2023/05/26 11:41:50;;;;;;;3.10;1.70;;;32.30;35.00;;;;;;4995319;28;20056;-80
2023/05/26 11:44:17;;;;;;;2.13;1.60;;;32.40;34.90;;;;;;4997087;28;20207;-81
2023/05/26 11:46:44;;;;;;;3.75;1.90;;;32.40;34.80;;;;;;4990748;28;20050;-81
2023/05/26 11:49:14;;;;;;;5.93;2.13;;;32.60;34.80;;;;;;5010188;28;20065;-81
2023/05/26 11:51:48;;;;;;;3.30;2.15;;;32.60;34.60;;;;;;4990785;28;20029;-83
2023/05/26 11:54:16;;;;;;;3.85;1.95;;;32.70;34.40;;;;;;4995925;28;20790;-79
2023/05/26 11:56:44;;;;;;;3.58;2.03;;;32.80;34.50;;;;;;5003893;28;20028;-84
2023/05/26 11:59:21;;;;;;;4.18;1.90;;;32.80;34.30;;;;;;4991189;28;20037;-79
2023/05/26 12:01:47;;;;;;;6.25;2.50;;;32.90;34.30;;;;;;5000513;28;20045;-79
2023/05/26 12:04:27;;;;;;;3.35;2.00;;;33.00;34.30;;;;;;5009572;28;20296;-81
2023/05/26 12:06:54;;;;;;;4.53;2.35;;;33.10;34.20;;;;;;5007356;28;20556;-79
2023/05/26 12:09:23;;;;;;;4.85;2.30;;;33.10;34.20;;;;;;4979884;28;20040;-79
2023/05/26 12:11:53;;;;;;;3.97;1.83;;;33.10;34.10;;;;;;4998096;28;20034;-80
2023/05/26 12:14:22;;;;;;;4.88;2.35;;;33.20;34.00;;;;;;4998310;28;20057;-81
2023/05/26 12:16:51;;;;;;;3.55;2.08;;;33.30;34.00;;;;;;4992854;28;20034;-80
2023/05/26 12:19:18;;;;;;;3.80;2.10;;;33.40;34.00;;;;;;4996628;28;20030;-81
2023/05/26 12:21:50;;;;;;;5.30;2.10;;;33.50;33.90;;;;;;4980900;28;20030;-83
2023/05/26 12:24:33;;;;;;;3.15;1.75;;;33.60;33.90;;;;;;5012899;28;20469;-81
2023/05/26 12:27:09;;;;;;;3.63;1.85;;;33.70;33.80;;;;;;5010393;28;20045;-81
2023/05/26 12:29:44;;;;;;;2.30;1.30;;;33.80;33.80;;;;;;4988370;28;20057;-82
2023/05/26 12:32:11;;;;;;;3.40;1.77;;;33.90;33.80;;;;;;4995368;28;20042;-82
2023/05/26 12:34:41;;;;;;;2.95;1.90;;;34.00;33.70;;;;;;4992019;28;20490;-81
2023/05/26 12:37:07;;;;;;;4.15;1.80;;;34.10;33.70;;;;;;5004340;28;20042;-81
2023/05/26 12:39:43;;;;;;;2.55;1.63;;;34.20;33.60;;;;;;4995116;28;20042;-81
2023/05/26 12:42:18;;;;;;;3.00;1.30;;;34.30;33.60;;;;;;4989441;28;20101;-80
2023/05/26 12:44:54;;;;;;;3.45;1.70;;;34.40;33.50;;;;;;4993556;28;20224;-83
2023/05/26 12:47:23;;;;;;;4.65;1.70;;;34.50;33.40;;;;;;4998171;28;20057;-82
2023/05/26 12:49:49;;;;;;;4.80;1.85;;;34.70;33.90;;;;;;4993650;28;20060;-80
2023/05/26 12:52:15;;;;;;;5.72;1.80;;;34.80;33.20;;;;;;4998490;28;20497;-80
2023/05/26 12:54:42;;;;;;;3.30;1.70;;;34.90;33.00;;;;;;4997128;28;20083;-84
2023/05/26 12:57:08;;;;;;;3.15;1.88;;;35.00;32.90;;;;;;4999696;28;20541;-82
2023/05/26 12:59:36;;;;;;;4.18;2.25;;;35.10;33.50;;;;;;4995260;28;20604;-80
2023/05/26 13:02:11;;;;;;;2.00;1.60;;;35.20;32.80;;;;;;4990595;28;20057;-82
2023/05/26 13:04:46;;;;;;;3.28;1.80;;;35.30;32.70;;;;;;4998177;28;20124;-81
2023/05/26 13:07:13;;;;;;;5.15;2.10;;;35.50;32.70;;;;;;5000923;28;20038;-82